Sharp, Texas
Current Conditions -  °F | °C
As of 10:15 PM on Sunday 25 Jan 2015 (Local Time) from KT35 Reporting Station
Clear Clear  
Wind Chill: 47°   Ceiling: Unl
Heat Index: 49°   Visibility: 10mi
Dew Point: 33°   Wind: 6mph
Humidity: 53%   Direction: 300°WNW
Pressure: 30.19"   Gusts: NA
Location:  30.8953°N, 97.127°W
Report Text: KT35 260415Z AUTO 30005KT 10SM CLR 10/01 A3019 RMK AO2 T00970005
Loading
Personal Weather Stations






























Interactive Weather Map New forecast layout! Learn more

10-Day Weather Forecast

Advertisements
Track Severe Weather on mobile